sensor_id;sensor_type;location;lat;lon;timestamp;P1;durP1;ratioP1;P2;durP2;ratioP2
4812;SDS011;2420;51.202;8.698;2023-04-24T00:00:12;1.10;;;1.00;;
4812;SDS011;2420;51.202;8.698;2023-04-24T00:02:39;1.50;;;1.00;;
4812;SDS011;2420;51.202;8.698;2023-04-24T00:05:05;1.60;;;0.90;;
4812;SDS011;2420;51.202;8.698;2023-04-24T00:07:31;2.15;;;1.10;;
4812;SDS011;2420;51.202;8.698;2023-04-24T00:09:57;0.90;;;0.90;;
4812;SDS011;2420;51.202;8.698;2023-04-24T00:12:23;1.05;;;0.90;;
4812;SDS011;2420;51.202;8.698;2023-04-24T00:14:49;0.85;;;0.85;;
4812;SDS011;2420;51.202;8.698;2023-04-24T00:17:14;1.33;;;1.00;;
4812;SDS011;2420;51.202;8.698;2023-04-24T00:19:40;0.90;;;0.90;;
4812;SDS011;2420;51.202;8.698;2023-04-24T00:22:06;1.38;;;1.00;;
4812;SDS011;2420;51.202;8.698;2023-04-24T00:24:32;1.45;;;1.00;;
4812;SDS011;2420;51.202;8.698;2023-04-24T00:26:57;1.27;;;0.90;;
4812;SDS011;2420;51.202;8.698;2023-04-24T00:29:23;1.10;;;1.00;;
4812;SDS011;2420;51.202;8.698;2023-04-24T00:31:49;1.17;;;0.90;;
4812;SDS011;2420;51.202;8.698;2023-04-24T00:34:14;1.10;;;1.00;;
4812;SDS011;2420;51.202;8.698;2023-04-24T00:36:40;1.10;;;1.00;;
4812;SDS011;2420;51.202;8.698;2023-04-24T00:39:06;1.08;;;0.98;;
4812;SDS011;2420;51.202;8.698;2023-04-24T00:41:33;1.10;;;1.00;;
4812;SDS011;2420;51.202;8.698;2023-04-24T00:43:59;1.40;;;1.10;;
4812;SDS011;2420;51.202;8.698;2023-04-24T00:46:25;1.55;;;0.90;;
4812;SDS011;2420;51.202;8.698;2023-04-24T00:48:50;1.65;;;0.90;;
4812;SDS011;2420;51.202;8.698;2023-04-24T00:51:16;2.42;;;1.02;;
4812;SDS011;2420;51.202;8.698;2023-04-24T00:53:42;1.20;;;1.10;;
4812;SDS011;2420;51.202;8.698;2023-04-24T00:56:08;1.20;;;1.10;;
4812;SDS011;2420;51.202;8.698;2023-04-24T00:58:34;1.10;;;0.95;;
4812;SDS011;2420;51.202;8.698;2023-04-24T01:01:00;1.65;;;1.00;;
4812;SDS011;2420;51.202;8.698;2023-04-24T01:03:28;0.90;;;0.90;;
4812;SDS011;2420;51.202;8.698;2023-04-24T01:05:55;1.10;;;1.00;;
4812;SDS011;2420;51.202;8.698;2023-04-24T01:08:23;1.00;;;0.90;;
4812;SDS011;2420;51.202;8.698;2023-04-24T01:10:51;2.15;;;1.00;;
4812;SDS011;2420;51.202;8.698;2023-04-24T01:13:18;1.98;;;1.10;;
4812;SDS011;2420;51.202;8.698;2023-04-24T01:15:45;1.10;;;0.95;;
4812;SDS011;2420;51.202;8.698;2023-04-24T01:18:10;1.85;;;1.00;;
4812;SDS011;2420;51.202;8.698;2023-04-24T01:20:37;1.23;;;1.00;;
4812;SDS011;2420;51.202;8.698;2023-04-24T01:23:07;0.90;;;0.90;;
4812;SDS011;2420;51.202;8.698;2023-04-24T01:25:34;1.27;;;1.08;;
4812;SDS011;2420;51.202;8.698;2023-04-24T01:28:00;1.13;;;1.00;;
4812;SDS011;2420;51.202;8.698;2023-04-24T01:30:26;1.48;;;1.10;;
4812;SDS011;2420;51.202;8.698;2023-04-24T01:32:52;1.25;;;1.15;;
4812;SDS011;2420;51.202;8.698;2023-04-24T01:35:19;1.88;;;1.25;;
4812;SDS011;2420;51.202;8.698;2023-04-24T01:37:45;2.08;;;1.20;;
4812;SDS011;2420;51.202;8.698;2023-04-24T01:40:10;1.38;;;1.27;;
4812;SDS011;2420;51.202;8.698;2023-04-24T01:42:36;2.47;;;1.20;;
4812;SDS011;2420;51.202;8.698;2023-04-24T01:45:03;1.63;;;1.52;;
4812;SDS011;2420;51.202;8.698;2023-04-24T01:47:30;1.83;;;1.10;;
4812;SDS011;2420;51.202;8.698;2023-04-24T01:49:56;1.83;;;1.50;;
4812;SDS011;2420;51.202;8.698;2023-04-24T01:52:22;2.35;;;1.30;;
4812;SDS011;2420;51.202;8.698;2023-04-24T01:54:47;1.88;;;1.40;;
4812;SDS011;2420;51.202;8.698;2023-04-24T01:57:13;3.88;;;1.50;;
4812;SDS011;2420;51.202;8.698;2023-04-24T01:59:39;1.55;;;1.27;;
4812;SDS011;2420;51.202;8.698;2023-04-24T02:02:05;1.60;;;1.50;;
4812;SDS011;2420;51.202;8.698;2023-04-24T02:04:31;2.65;;;1.42;;
4812;SDS011;2420;51.202;8.698;2023-04-24T02:06:56;1.50;;;1.40;;
4812;SDS011;2420;51.202;8.698;2023-04-24T02:09:22;4.68;;;1.40;;
4812;SDS011;2420;51.202;8.698;2023-04-24T02:11:47;2.22;;;1.42;;
4812;SDS011;2420;51.202;8.698;2023-04-24T02:14:13;1.50;;;1.40;;
4812;SDS011;2420;51.202;8.698;2023-04-24T02:16:38;2.00;;;1.50;;
4812;SDS011;2420;51.202;8.698;2023-04-24T02:19:04;3.70;;;1.85;;
4812;SDS011;2420;51.202;8.698;2023-04-24T02:21:30;2.00;;;1.80;;
4812;SDS011;2420;51.202;8.698;2023-04-24T02:23:56;2.22;;;1.83;;
4812;SDS011;2420;51.202;8.698;2023-04-24T02:26:21;2.40;;;1.88;;
4812;SDS011;2420;51.202;8.698;2023-04-24T02:28:47;1.70;;;1.60;;
4812;SDS011;2420;51.202;8.698;2023-04-24T02:31:13;2.30;;;2.00;;
4812;SDS011;2420;51.202;8.698;2023-04-24T02:33:39;2.20;;;2.00;;
4812;SDS011;2420;51.202;8.698;2023-04-24T02:36:04;2.28;;;1.83;;
4812;SDS011;2420;51.202;8.698;2023-04-24T02:38:30;2.35;;;1.73;;
4812;SDS011;2420;51.202;8.698;2023-04-24T02:40:55;2.15;;;1.75;;
4812;SDS011;2420;51.202;8.698;2023-04-24T02:43:21;1.85;;;1.40;;
4812;SDS011;2420;51.202;8.698;2023-04-24T02:45:47;1.83;;;1.42;;
4812;SDS011;2420;51.202;8.698;2023-04-24T02:48:12;1.58;;;1.40;;
4812;SDS011;2420;51.202;8.698;2023-04-24T02:50:38;2.05;;;1.50;;
4812;SDS011;2420;51.202;8.698;2023-04-24T02:53:03;2.20;;;1.35;;
4812;SDS011;2420;51.202;8.698;2023-04-24T02:55:29;1.33;;;1.23;;
4812;SDS011;2420;51.202;8.698;2023-04-24T02:57:55;1.50;;;1.40;;
4812;SDS011;2420;51.202;8.698;2023-04-24T03:00:20;1.70;;;1.27;;
4812;SDS011;2420;51.202;8.698;2023-04-24T03:02:46;1.42;;;1.30;;
4812;SDS011;2420;51.202;8.698;2023-04-24T03:05:12;1.25;;;1.15;;
4812;SDS011;2420;51.202;8.698;2023-04-24T03:07:37;1.20;;;1.10;;
4812;SDS011;2420;51.202;8.698;2023-04-24T03:10:04;1.30;;;1.20;;
4812;SDS011;2420;51.202;8.698;2023-04-24T03:12:30;2.03;;;1.27;;
4812;SDS011;2420;51.202;8.698;2023-04-24T03:14:56;1.92;;;1.08;;
4812;SDS011;2420;51.202;8.698;2023-04-24T03:17:21;2.95;;;1.10;;
4812;SDS011;2420;51.202;8.698;2023-04-24T03:19:47;1.10;;;1.00;;
4812;SDS011;2420;51.202;8.698;2023-04-24T03:22:12;1.30;;;1.20;;
4812;SDS011;2420;51.202;8.698;2023-04-24T03:24:38;3.60;;;1.20;;
4812;SDS011;2420;51.202;8.698;2023-04-24T03:27:04;1.95;;;1.40;;
4812;SDS011;2420;51.202;8.698;2023-04-24T03:29:29;1.27;;;1.10;;
4812;SDS011;2420;51.202;8.698;2023-04-24T03:31:55;2.10;;;1.30;;
4812;SDS011;2420;51.202;8.698;2023-04-24T03:34:20;1.90;;;1.50;;
4812;SDS011;2420;51.202;8.698;2023-04-24T03:36:46;1.35;;;1.25;;
4812;SDS011;2420;51.202;8.698;2023-04-24T03:39:12;2.50;;;1.38;;
4812;SDS011;2420;51.202;8.698;2023-04-24T03:41:38;1.52;;;1.42;;
4812;SDS011;2420;51.202;8.698;2023-04-24T03:44:03;2.00;;;1.70;;
4812;SDS011;2420;51.202;8.698;2023-04-24T03:46:29;1.67;;;1.50;;
4812;SDS011;2420;51.202;8.698;2023-04-24T03:48:55;1.85;;;1.40;;
4812;SDS011;2420;51.202;8.698;2023-04-24T03:51:20;3.20;;;1.50;;
4812;SDS011;2420;51.202;8.698;2023-04-24T03:53:46;1.45;;;1.35;;
4812;SDS011;2420;51.202;8.698;2023-04-24T03:56:12;1.60;;;1.30;;
4812;SDS011;2420;51.202;8.698;2023-04-24T03:58:37;1.50;;;1.30;;
4812;SDS011;2420;51.202;8.698;2023-04-24T04:01:03;1.80;;;1.70;;
4812;SDS011;2420;51.202;8.698;2023-04-24T04:03:28;2.55;;;1.70;;
4812;SDS011;2420;51.202;8.698;2023-04-24T04:05:54;2.00;;;1.67;;
4812;SDS011;2420;51.202;8.698;2023-04-24T04:08:20;2.13;;;1.80;;
4812;SDS011;2420;51.202;8.698;2023-04-24T04:10:45;1.42;;;1.33;;
4812;SDS011;2420;51.202;8.698;2023-04-24T04:13:11;3.45;;;1.63;;
4812;SDS011;2420;51.202;8.698;2023-04-24T04:15:36;2.25;;;1.60;;
4812;SDS011;2420;51.202;8.698;2023-04-24T04:18:02;3.70;;;1.60;;
4812;SDS011;2420;51.202;8.698;2023-04-24T04:20:28;1.83;;;1.60;;
4812;SDS011;2420;51.202;8.698;2023-04-24T04:22:53;1.75;;;1.65;;
4812;SDS011;2420;51.202;8.698;2023-04-24T04:25:19;2.53;;;1.52;;
4812;SDS011;2420;51.202;8.698;2023-04-24T04:27:45;1.85;;;1.60;;
4812;SDS011;2420;51.202;8.698;2023-04-24T04:30:12;1.77;;;1.48;;
4812;SDS011;2420;51.202;8.698;2023-04-24T04:32:38;1.77;;;1.58;;
4812;SDS011;2420;51.202;8.698;2023-04-24T04:35:04;2.30;;;1.85;;
4812;SDS011;2420;51.202;8.698;2023-04-24T04:37:33;3.38;;;2.30;;
4812;SDS011;2420;51.202;8.698;2023-04-24T04:39:59;2.53;;;2.00;;
4812;SDS011;2420;51.202;8.698;2023-04-24T04:42:27;4.57;;;2.20;;
4812;SDS011;2420;51.202;8.698;2023-04-24T04:44:53;2.63;;;2.15;;
4812;SDS011;2420;51.202;8.698;2023-04-24T04:47:21;2.40;;;2.20;;
4812;SDS011;2420;51.202;8.698;2023-04-24T04:49:50;4.00;;;2.75;;
4812;SDS011;2420;51.202;8.698;2023-04-24T04:52:18;2.90;;;2.60;;
4812;SDS011;2420;51.202;8.698;2023-04-24T04:54:44;2.80;;;2.35;;
4812;SDS011;2420;51.202;8.698;2023-04-24T04:57:11;3.10;;;2.33;;
4812;SDS011;2420;51.202;8.698;2023-04-24T04:59:37;2.40;;;2.20;;
4812;SDS011;2420;51.202;8.698;2023-04-24T05:02:02;4.20;;;2.60;;
4812;SDS011;2420;51.202;8.698;2023-04-24T05:04:28;3.17;;;2.72;;
4812;SDS011;2420;51.202;8.698;2023-04-24T05:06:55;4.15;;;3.22;;
4812;SDS011;2420;51.202;8.698;2023-04-24T05:09:21;4.03;;;2.85;;
4812;SDS011;2420;51.202;8.698;2023-04-24T05:11:46;5.25;;;3.75;;
4812;SDS011;2420;51.202;8.698;2023-04-24T05:14:12;5.18;;;3.67;;
4812;SDS011;2420;51.202;8.698;2023-04-24T05:16:38;5.38;;;3.30;;
4812;SDS011;2420;51.202;8.698;2023-04-24T05:19:04;4.53;;;3.60;;
4812;SDS011;2420;51.202;8.698;2023-04-24T05:21:30;6.60;;;4.88;;
4812;SDS011;2420;51.202;8.698;2023-04-24T05:23:56;9.15;;;5.03;;
4812;SDS011;2420;51.202;8.698;2023-04-24T05:26:22;7.00;;;5.57;;
4812;SDS011;2420;51.202;8.698;2023-04-24T05:28:47;7.20;;;4.78;;
4812;SDS011;2420;51.202;8.698;2023-04-24T05:31:13;6.93;;;4.82;;
4812;SDS011;2420;51.202;8.698;2023-04-24T05:33:39;5.85;;;4.63;;
4812;SDS011;2420;51.202;8.698;2023-04-24T05:36:05;8.45;;;5.95;;
4812;SDS011;2420;51.202;8.698;2023-04-24T05:38:31;8.68;;;5.50;;
4812;SDS011;2420;51.202;8.698;2023-04-24T05:40:57;7.72;;;5.38;;
4812;SDS011;2420;51.202;8.698;2023-04-24T05:43:22;9.60;;;5.75;;
4812;SDS011;2420;51.202;8.698;2023-04-24T05:45:48;9.35;;;6.18;;
4812;SDS011;2420;51.202;8.698;2023-04-24T05:48:13;9.02;;;5.93;;
4812;SDS011;2420;51.202;8.698;2023-04-24T05:50:39;8.77;;;6.43;;
4812;SDS011;2420;51.202;8.698;2023-04-24T05:53:05;9.20;;;6.75;;
4812;SDS011;2420;51.202;8.698;2023-04-24T05:55:32;10.07;;;6.60;;
4812;SDS011;2420;51.202;8.698;2023-04-24T05:57:58;8.65;;;6.38;;
4812;SDS011;2420;51.202;8.698;2023-04-24T06:00:24;10.50;;;7.13;;
4812;SDS011;2420;51.202;8.698;2023-04-24T06:02:50;11.10;;;6.55;;
4812;SDS011;2420;51.202;8.698;2023-04-24T06:05:17;8.40;;;6.55;;
4812;SDS011;2420;51.202;8.698;2023-04-24T06:07:43;8.82;;;6.30;;
4812;SDS011;2420;51.202;8.698;2023-04-24T06:10:08;8.90;;;6.63;;
4812;SDS011;2420;51.202;8.698;2023-04-24T06:12:35;9.20;;;6.55;;
4812;SDS011;2420;51.202;8.698;2023-04-24T06:15:01;9.65;;;6.78;;
4812;SDS011;2420;51.202;8.698;2023-04-24T06:17:27;10.45;;;6.97;;
4812;SDS011;2420;51.202;8.698;2023-04-24T06:19:52;7.82;;;6.15;;
4812;SDS011;2420;51.202;8.698;2023-04-24T06:22:18;9.15;;;6.90;;
4812;SDS011;2420;51.202;8.698;2023-04-24T06:24:44;7.13;;;5.80;;
4812;SDS011;2420;51.202;8.698;2023-04-24T06:27:10;9.48;;;6.97;;
4812;SDS011;2420;51.202;8.698;2023-04-24T06:29:35;8.18;;;6.07;;
4812;SDS011;2420;51.202;8.698;2023-04-24T06:32:01;9.48;;;6.50;;
4812;SDS011;2420;51.202;8.698;2023-04-24T06:34:27;9.05;;;6.07;;
4812;SDS011;2420;51.202;8.698;2023-04-24T06:36:52;8.57;;;6.07;;
4812;SDS011;2420;51.202;8.698;2023-04-24T06:39:19;10.00;;;6.10;;
4812;SDS011;2420;51.202;8.698;2023-04-24T06:41:45;9.27;;;6.18;;
4812;SDS011;2420;51.202;8.698;2023-04-24T06:44:11;8.57;;;6.13;;
4812;SDS011;2420;51.202;8.698;2023-04-24T06:46:36;9.00;;;5.97;;
4812;SDS011;2420;51.202;8.698;2023-04-24T06:49:02;7.47;;;5.72;;
4812;SDS011;2420;51.202;8.698;2023-04-24T06:51:27;11.38;;;5.63;;
4812;SDS011;2420;51.202;8.698;2023-04-24T06:53:53;9.90;;;5.95;;
4812;SDS011;2420;51.202;8.698;2023-04-24T06:56:20;7.85;;;5.28;;
4812;SDS011;2420;51.202;8.698;2023-04-24T06:58:46;7.30;;;5.63;;
4812;SDS011;2420;51.202;8.698;2023-04-24T07:01:12;8.27;;;5.30;;
4812;SDS011;2420;51.202;8.698;2023-04-24T07:03:37;8.50;;;5.72;;
4812;SDS011;2420;51.202;8.698;2023-04-24T07:06:03;7.15;;;5.32;;
4812;SDS011;2420;51.202;8.698;2023-04-24T07:08:30;7.22;;;5.20;;
4812;SDS011;2420;51.202;8.698;2023-04-24T07:10:55;9.45;;;5.45;;
4812;SDS011;2420;51.202;8.698;2023-04-24T07:13:22;7.85;;;5.80;;
4812;SDS011;2420;51.202;8.698;2023-04-24T07:15:48;10.07;;;5.85;;
4812;SDS011;2420;51.202;8.698;2023-04-24T07:18:15;9.23;;;5.80;;
4812;SDS011;2420;51.202;8.698;2023-04-24T07:20:42;7.70;;;5.50;;
4812;SDS011;2420;51.202;8.698;2023-04-24T07:23:07;6.93;;;5.53;;
4812;SDS011;2420;51.202;8.698;2023-04-24T07:25:33;7.25;;;5.35;;
4812;SDS011;2420;51.202;8.698;2023-04-24T07:27:58;8.13;;;5.97;;
4812;SDS011;2420;51.202;8.698;2023-04-24T07:30:24;6.70;;;5.47;;
4812;SDS011;2420;51.202;8.698;2023-04-24T07:32:50;8.40;;;5.60;;
4812;SDS011;2420;51.202;8.698;2023-04-24T07:35:16;7.75;;;5.18;;
4812;SDS011;2420;51.202;8.698;2023-04-24T07:37:42;8.60;;;5.25;;
4812;SDS011;2420;51.202;8.698;2023-04-24T07:40:11;8.20;;;5.30;;
4812;SDS011;2420;51.202;8.698;2023-04-24T07:42:40;7.15;;;5.15;;
4812;SDS011;2420;51.202;8.698;2023-04-24T07:45:06;7.85;;;5.30;;
4812;SDS011;2420;51.202;8.698;2023-04-24T07:47:32;8.10;;;5.18;;
4812;SDS011;2420;51.202;8.698;2023-04-24T07:50:04;7.45;;;5.13;;
4812;SDS011;2420;51.202;8.698;2023-04-24T07:52:30;5.68;;;4.82;;
4812;SDS011;2420;51.202;8.698;2023-04-24T07:54:56;6.38;;;4.93;;
4812;SDS011;2420;51.202;8.698;2023-04-24T07:57:23;6.00;;;4.60;;
4812;SDS011;2420;51.202;8.698;2023-04-24T07:59:50;6.53;;;4.60;;
4812;SDS011;2420;51.202;8.698;2023-04-24T08:02:15;7.95;;;4.72;;
4812;SDS011;2420;51.202;8.698;2023-04-24T08:04:41;5.90;;;4.78;;
4812;SDS011;2420;51.202;8.698;2023-04-24T08:07:06;6.25;;;4.90;;
4812;SDS011;2420;51.202;8.698;2023-04-24T08:09:33;7.70;;;4.25;;
4812;SDS011;2420;51.202;8.698;2023-04-24T08:11:58;7.72;;;4.40;;
4812;SDS011;2420;51.202;8.698;2023-04-24T08:14:24;6.20;;;4.57;;
4812;SDS011;2420;51.202;8.698;2023-04-24T08:16:50;7.40;;;4.60;;
4812;SDS011;2420;51.202;8.698;2023-04-24T08:19:17;6.50;;;4.68;;
4812;SDS011;2420;51.202;8.698;2023-04-24T08:21:42;7.15;;;5.25;;
4812;SDS011;2420;51.202;8.698;2023-04-24T08:24:08;5.68;;;4.57;;
4812;SDS011;2420;51.202;8.698;2023-04-24T08:26:33;7.45;;;4.40;;
4812;SDS011;2420;51.202;8.698;2023-04-24T08:28:59;6.80;;;4.28;;
4812;SDS011;2420;51.202;8.698;2023-04-24T08:31:25;6.00;;;4.50;;
4812;SDS011;2420;51.202;8.698;2023-04-24T08:33:51;6.80;;;4.50;;
4812;SDS011;2420;51.202;8.698;2023-04-24T08:36:16;7.88;;;4.40;;
4812;SDS011;2420;51.202;8.698;2023-04-24T08:38:42;6.78;;;4.88;;
4812;SDS011;2420;51.202;8.698;2023-04-24T08:41:07;4.72;;;4.13;;
4812;SDS011;2420;51.202;8.698;2023-04-24T08:43:35;5.63;;;4.30;;
4812;SDS011;2420;51.202;8.698;2023-04-24T08:46:03;5.45;;;4.40;;
4812;SDS011;2420;51.202;8.698;2023-04-24T08:48:29;6.55;;;4.60;;
4812;SDS011;2420;51.202;8.698;2023-04-24T08:50:56;5.72;;;4.32;;
4812;SDS011;2420;51.202;8.698;2023-04-24T08:53:23;7.68;;;5.25;;
4812;SDS011;2420;51.202;8.698;2023-04-24T08:55:50;5.95;;;4.22;;
4812;SDS011;2420;51.202;8.698;2023-04-24T08:58:18;7.95;;;4.75;;
4812;SDS011;2420;51.202;8.698;2023-04-24T09:00:44;7.30;;;5.07;;
4812;SDS011;2420;51.202;8.698;2023-04-24T09:03:13;16.58;;;8.50;;
4812;SDS011;2420;51.202;8.698;2023-04-24T09:05:40;5.93;;;4.18;;
4812;SDS011;2420;51.202;8.698;2023-04-24T09:08:10;5.10;;;3.95;;
4812;SDS011;2420;51.202;8.698;2023-04-24T09:10:38;4.75;;;3.70;;
4812;SDS011;2420;51.202;8.698;2023-04-24T09:13:04;5.32;;;3.63;;
4812;SDS011;2420;51.202;8.698;2023-04-24T09:15:31;5.60;;;4.10;;
4812;SDS011;2420;51.202;8.698;2023-04-24T09:17:56;5.88;;;4.22;;
4812;SDS011;2420;51.202;8.698;2023-04-24T09:20:22;4.63;;;3.65;;
4812;SDS011;2420;51.202;8.698;2023-04-24T09:22:48;4.55;;;3.38;;
4812;SDS011;2420;51.202;8.698;2023-04-24T09:25:18;5.07;;;2.63;;
4812;SDS011;2420;51.202;8.698;2023-04-24T09:27:44;3.42;;;2.53;;
4812;SDS011;2420;51.202;8.698;2023-04-24T09:30:10;2.55;;;2.35;;
4812;SDS011;2420;51.202;8.698;2023-04-24T09:32:36;2.45;;;2.00;;
4812;SDS011;2420;51.202;8.698;2023-04-24T09:35:05;3.42;;;2.17;;
4812;SDS011;2420;51.202;8.698;2023-04-24T09:37:39;3.15;;;2.10;;
4812;SDS011;2420;51.202;8.698;2023-04-24T09:40:09;3.15;;;1.90;;
4812;SDS011;2420;51.202;8.698;2023-04-24T09:42:43;1.92;;;1.70;;
4812;SDS011;2420;51.202;8.698;2023-04-24T09:45:10;1.92;;;1.70;;
4812;SDS011;2420;51.202;8.698;2023-04-24T09:47:39;1.75;;;1.60;;
4812;SDS011;2420;51.202;8.698;2023-04-24T09:50:11;1.88;;;1.55;;
4812;SDS011;2420;51.202;8.698;2023-04-24T09:52:58;2.42;;;1.60;;
4812;SDS011;2420;51.202;8.698;2023-04-24T09:55:26;1.73;;;1.55;;
4812;SDS011;2420;51.202;8.698;2023-04-24T09:57:53;1.50;;;1.40;;
4812;SDS011;2420;51.202;8.698;2023-04-24T10:00:21;2.00;;;1.40;;
4812;SDS011;2420;51.202;8.698;2023-04-24T10:03:06;1.20;;;1.10;;
4812;SDS011;2420;51.202;8.698;2023-04-24T10:05:33;1.10;;;1.00;;
4812;SDS011;2420;51.202;8.698;2023-04-24T10:08:02;1.73;;;1.05;;
4812;SDS011;2420;51.202;8.698;2023-04-24T10:10:28;1.10;;;1.00;;
4812;SDS011;2420;51.202;8.698;2023-04-24T10:12:54;1.60;;;0.90;;
4812;SDS011;2420;51.202;8.698;2023-04-24T10:15:20;1.08;;;0.98;;
4812;SDS011;2420;51.202;8.698;2023-04-24T10:17:50;0.90;;;0.90;;
4812;SDS011;2420;51.202;8.698;2023-04-24T10:20:19;0.82;;;0.70;;
4812;SDS011;2420;51.202;8.698;2023-04-24T10:22:48;0.80;;;0.80;;
4812;SDS011;2420;51.202;8.698;2023-04-24T10:25:16;2.45;;;0.70;;
4812;SDS011;2420;51.202;8.698;2023-04-24T10:27:46;0.75;;;0.70;;
4812;SDS011;2420;51.202;8.698;2023-04-24T10:30:13;0.80;;;0.70;;
4812;SDS011;2420;51.202;8.698;2023-04-24T10:32:39;0.52;;;0.52;;
4812;SDS011;2420;51.202;8.698;2023-04-24T10:35:09;0.70;;;0.70;;
4812;SDS011;2420;51.202;8.698;2023-04-24T10:37:37;0.60;;;0.60;;
4812;SDS011;2420;51.202;8.698;2023-04-24T10:40:31;0.40;;;0.40;;
4812;SDS011;2420;51.202;8.698;2023-04-24T10:42:58;1.05;;;0.60;;
4812;SDS011;2420;51.202;8.698;2023-04-24T10:45:25;1.00;;;0.90;;
4812;SDS011;2420;51.202;8.698;2023-04-24T10:47:56;0.70;;;0.70;;
4812;SDS011;2420;51.202;8.698;2023-04-24T10:50:22;0.80;;;0.80;;
4812;SDS011;2420;51.202;8.698;2023-04-24T10:52:48;0.73;;;0.73;;
4812;SDS011;2420;51.202;8.698;2023-04-24T10:58:15;0.85;;;0.85;;
4812;SDS011;2420;51.202;8.698;2023-04-24T11:00:54;1.08;;;0.98;;
4812;SDS011;2420;51.202;8.698;2023-04-24T11:03:25;1.08;;;0.98;;
4812;SDS011;2420;51.202;8.698;2023-04-24T11:05:53;1.00;;;0.90;;
4812;SDS011;2420;51.202;8.698;2023-04-24T11:08:27;0.90;;;0.90;;
4812;SDS011;2420;51.202;8.698;2023-04-24T11:13:26;0.82;;;0.82;;
4812;SDS011;2420;51.202;8.698;2023-04-24T11:16:14;0.80;;;0.80;;
4812;SDS011;2420;51.202;8.698;2023-04-24T11:18:51;0.70;;;0.70;;
4812;SDS011;2420;51.202;8.698;2023-04-24T11:21:19;0.70;;;0.70;;
4812;SDS011;2420;51.202;8.698;2023-04-24T11:23:47;0.80;;;0.80;;
4812;SDS011;2420;51.202;8.698;2023-04-24T11:26:14;0.60;;;0.60;;
4812;SDS011;2420;51.202;8.698;2023-04-24T11:29:05;0.70;;;0.70;;
4812;SDS011;2420;51.202;8.698;2023-04-24T11:31:39;0.70;;;0.70;;
4812;SDS011;2420;51.202;8.698;2023-04-24T11:34:14;0.50;;;0.50;;
4812;SDS011;2420;51.202;8.698;2023-04-24T11:36:42;0.75;;;0.60;;
4812;SDS011;2420;51.202;8.698;2023-04-24T11:39:08;0.60;;;0.60;;
4812;SDS011;2420;51.202;8.698;2023-04-24T11:41:36;0.85;;;0.65;;
4812;SDS011;2420;51.202;8.698;2023-04-24T11:44:02;1.45;;;0.80;;
4812;SDS011;2420;51.202;8.698;2023-04-24T11:46:30;0.90;;;0.80;;
4812;SDS011;2420;51.202;8.698;2023-04-24T11:48:57;0.70;;;0.70;;
4812;SDS011;2420;51.202;8.698;2023-04-24T11:51:23;0.85;;;0.70;;
4812;SDS011;2420;51.202;8.698;2023-04-24T11:53:53;0.60;;;0.60;;
4812;SDS011;2420;51.202;8.698;2023-04-24T11:56:23;0.60;;;0.60;;
4812;SDS011;2420;51.202;8.698;2023-04-24T11:58:51;0.50;;;0.50;;
4812;SDS011;2420;51.202;8.698;2023-04-24T12:01:18;0.60;;;0.60;;
4812;SDS011;2420;51.202;8.698;2023-04-24T12:03:47;1.02;;;0.80;;
4812;SDS011;2420;51.202;8.698;2023-04-24T12:06:13;0.70;;;0.70;;
4812;SDS011;2420;51.202;8.698;2023-04-24T12:08:39;2.75;;;1.45;;
4812;SDS011;2420;51.202;8.698;2023-04-24T12:11:05;5.35;;;1.88;;
4812;SDS011;2420;51.202;8.698;2023-04-24T12:13:35;2.97;;;1.33;;
4812;SDS011;2420;51.202;8.698;2023-04-24T12:16:01;2.42;;;1.20;;
4812;SDS011;2420;51.202;8.698;2023-04-24T12:18:29;4.13;;;2.13;;
4812;SDS011;2420;51.202;8.698;2023-04-24T12:20:54;0.73;;;0.73;;
4812;SDS011;2420;51.202;8.698;2023-04-24T12:23:35;0.70;;;0.70;;
4812;SDS011;2420;51.202;8.698;2023-04-24T12:26:03;1.00;;;0.93;;
4812;SDS011;2420;51.202;8.698;2023-04-24T12:28:36;4.28;;;1.58;;
4812;SDS011;2420;51.202;8.698;2023-04-24T12:31:03;1.00;;;0.90;;
4812;SDS011;2420;51.202;8.698;2023-04-24T12:33:32;1.98;;;1.13;;
4812;SDS011;2420;51.202;8.698;2023-04-24T12:35:59;3.95;;;2.00;;
4812;SDS011;2420;51.202;8.698;2023-04-24T12:38:26;21.13;;;4.55;;
4812;SDS011;2420;51.202;8.698;2023-04-24T12:41:06;3.40;;;1.40;;
4812;SDS011;2420;51.202;8.698;2023-04-24T12:43:34;10.43;;;3.20;;
4812;SDS011;2420;51.202;8.698;2023-04-24T12:46:00;1.10;;;1.00;;
4812;SDS011;2420;51.202;8.698;2023-04-24T12:48:28;18.33;;;7.53;;
4812;SDS011;2420;51.202;8.698;2023-04-24T12:50:54;2.20;;;1.40;;
4812;SDS011;2420;51.202;8.698;2023-04-24T12:53:22;8.50;;;3.72;;
4812;SDS011;2420;51.202;8.698;2023-04-24T12:55:47;1.60;;;1.20;;
4812;SDS011;2420;51.202;8.698;2023-04-24T12:58:18;3.10;;;2.03;;
4812;SDS011;2420;51.202;8.698;2023-04-24T13:00:45;7.88;;;3.28;;
4812;SDS011;2420;51.202;8.698;2023-04-24T13:03:11;2.20;;;1.50;;
4812;SDS011;2420;51.202;8.698;2023-04-24T13:05:37;1.55;;;1.40;;
4812;SDS011;2420;51.202;8.698;2023-04-24T13:08:02;5.20;;;2.22;;
4812;SDS011;2420;51.202;8.698;2023-04-24T13:10:28;3.55;;;2.05;;
4812;SDS011;2420;51.202;8.698;2023-04-24T13:12:53;3.13;;;1.95;;
4812;SDS011;2420;51.202;8.698;2023-04-24T13:15:19;1.83;;;1.35;;
4812;SDS011;2420;51.202;8.698;2023-04-24T13:17:45;3.00;;;1.80;;
4812;SDS011;2420;51.202;8.698;2023-04-24T13:20:10;5.28;;;2.40;;
4812;SDS011;2420;51.202;8.698;2023-04-24T13:22:36;2.10;;;1.85;;
4812;SDS011;2420;51.202;8.698;2023-04-24T13:25:02;2.75;;;2.25;;
4812;SDS011;2420;51.202;8.698;2023-04-24T13:27:28;5.65;;;2.80;;
4812;SDS011;2420;51.202;8.698;2023-04-24T13:29:53;6.80;;;3.03;;
4812;SDS011;2420;51.202;8.698;2023-04-24T13:32:19;5.53;;;2.92;;
4812;SDS011;2420;51.202;8.698;2023-04-24T13:34:45;3.25;;;2.63;;
4812;SDS011;2420;51.202;8.698;2023-04-24T13:37:11;4.85;;;3.20;;
4812;SDS011;2420;51.202;8.698;2023-04-24T13:39:36;5.95;;;3.33;;
4812;SDS011;2420;51.202;8.698;2023-04-24T13:42:02;4.90;;;3.00;;
4812;SDS011;2420;51.202;8.698;2023-04-24T13:44:28;8.07;;;4.22;;
4812;SDS011;2420;51.202;8.698;2023-04-24T13:46:54;6.50;;;3.42;;
4812;SDS011;2420;51.202;8.698;2023-04-24T13:49:22;5.97;;;3.40;;
4812;SDS011;2420;51.202;8.698;2023-04-24T13:51:50;6.32;;;2.85;;
4812;SDS011;2420;51.202;8.698;2023-04-24T13:54:15;4.05;;;2.80;;
4812;SDS011;2420;51.202;8.698;2023-04-24T13:56:41;5.40;;;3.10;;
4812;SDS011;2420;51.202;8.698;2023-04-24T13:59:07;5.13;;;3.03;;
4812;SDS011;2420;51.202;8.698;2023-04-24T14:01:33;5.18;;;3.10;;
4812;SDS011;2420;51.202;8.698;2023-04-24T14:03:59;6.45;;;2.80;;
4812;SDS011;2420;51.202;8.698;2023-04-24T14:06:24;6.63;;;3.25;;
4812;SDS011;2420;51.202;8.698;2023-04-24T14:08:51;6.03;;;3.45;;
4812;SDS011;2420;51.202;8.698;2023-04-24T14:11:17;4.82;;;3.13;;
4812;SDS011;2420;51.202;8.698;2023-04-24T14:13:43;7.18;;;3.58;;
4812;SDS011;2420;51.202;8.698;2023-04-24T14:16:10;5.00;;;3.17;;
4812;SDS011;2420;51.202;8.698;2023-04-24T14:18:35;5.68;;;3.90;;
4812;SDS011;2420;51.202;8.698;2023-04-24T14:21:04;6.00;;;4.07;;
4812;SDS011;2420;51.202;8.698;2023-04-24T14:23:30;7.47;;;3.70;;
4812;SDS011;2420;51.202;8.698;2023-04-24T14:25:56;6.28;;;3.33;;
4812;SDS011;2420;51.202;8.698;2023-04-24T14:28:22;7.68;;;4.35;;
4812;SDS011;2420;51.202;8.698;2023-04-24T14:30:48;5.38;;;3.03;;
4812;SDS011;2420;51.202;8.698;2023-04-24T14:33:14;6.47;;;3.63;;
4812;SDS011;2420;51.202;8.698;2023-04-24T14:35:40;8.00;;;3.40;;
4812;SDS011;2420;51.202;8.698;2023-04-24T14:38:07;6.57;;;4.15;;
4812;SDS011;2420;51.202;8.698;2023-04-24T14:40:33;6.25;;;3.40;;
4812;SDS011;2420;51.202;8.698;2023-04-24T14:42:59;6.10;;;3.25;;
4812;SDS011;2420;51.202;8.698;2023-04-24T14:45:25;6.97;;;3.53;;
4812;SDS011;2420;51.202;8.698;2023-04-24T14:47:51;8.07;;;3.83;;
4812;SDS011;2420;51.202;8.698;2023-04-24T14:50:17;7.30;;;4.55;;
4812;SDS011;2420;51.202;8.698;2023-04-24T14:52:43;5.20;;;3.22;;
4812;SDS011;2420;51.202;8.698;2023-04-24T14:55:08;6.07;;;3.78;;
4812;SDS011;2420;51.202;8.698;2023-04-24T14:57:34;6.22;;;3.38;;
4812;SDS011;2420;51.202;8.698;2023-04-24T15:00:01;5.30;;;3.63;;
4812;SDS011;2420;51.202;8.698;2023-04-24T15:02:32;4.25;;;3.38;;
4812;SDS011;2420;51.202;8.698;2023-04-24T15:04:58;8.23;;;3.35;;
4812;SDS011;2420;51.202;8.698;2023-04-24T15:07:24;5.82;;;3.33;;
4812;SDS011;2420;51.202;8.698;2023-04-24T15:09:49;9.30;;;3.55;;
4812;SDS011;2420;51.202;8.698;2023-04-24T15:12:15;9.07;;;3.53;;
4812;SDS011;2420;51.202;8.698;2023-04-24T15:14:40;5.55;;;3.28;;
4812;SDS011;2420;51.202;8.698;2023-04-24T15:17:06;5.95;;;3.75;;